sensor_id;sensor_type;location;lat;lon;timestamp;pressure;altitude;pressure_sealevel;temperature;humidity
11678;BME280;5895;41.950;24.372;2023-02-19T00:01:06;87100.94;;;2.72;64.65
11678;BME280;5895;41.950;24.372;2023-02-19T00:03:35;87098.38;;;2.72;63.76
11678;BME280;5895;41.950;24.372;2023-02-19T00:06:02;87096.34;;;2.67;63.08
11678;BME280;5895;41.950;24.372;2023-02-19T00:08:30;87097.22;;;2.74;63.48
11678;BME280;5895;41.950;24.372;2023-02-19T00:11:00;87096.69;;;2.79;64.25
11678;BME280;5895;41.950;24.372;2023-02-19T00:13:27;87088.31;;;2.85;63.06
11678;BME280;5895;41.950;24.372;2023-02-19T00:15:55;87099.28;;;2.94;62.45
11678;BME280;5895;41.950;24.372;2023-02-19T00:18:23;87089.31;;;2.99;62.37
11678;BME280;5895;41.950;24.372;2023-02-19T00:20:55;87088.41;;;3.06;63.60
11678;BME280;5895;41.950;24.372;2023-02-19T00:23:23;87081.59;;;3.13;62.34
11678;BME280;5895;41.950;24.372;2023-02-19T00:25:51;87069.94;;;3.26;61.85
11678;BME280;5895;41.950;24.372;2023-02-19T00:28:18;87065.28;;;3.36;61.19
11678;BME280;5895;41.950;24.372;2023-02-19T00:30:46;87065.19;;;3.44;61.31
11678;BME280;5895;41.950;24.372;2023-02-19T00:33:14;87066.31;;;3.56;61.08
11678;BME280;5895;41.950;24.372;2023-02-19T00:35:41;87054.09;;;3.58;60.42
11678;BME280;5895;41.950;24.372;2023-02-19T00:38:09;87053.75;;;3.61;60.50
11678;BME280;5895;41.950;24.372;2023-02-19T00:40:37;87054.53;;;3.62;60.21
11678;BME280;5895;41.950;24.372;2023-02-19T00:43:04;87045.84;;;3.63;60.61
11678;BME280;5895;41.950;24.372;2023-02-19T00:45:31;87042.75;;;3.67;60.12
11678;BME280;5895;41.950;24.372;2023-02-19T00:48:00;87037.03;;;3.65;60.63
11678;BME280;5895;41.950;24.372;2023-02-19T00:50:27;87027.00;;;3.70;60.48
11678;BME280;5895;41.950;24.372;2023-02-19T00:52:54;87025.09;;;3.79;60.40
11678;BME280;5895;41.950;24.372;2023-02-19T00:55:23;87021.59;;;3.87;60.21
11678;BME280;5895;41.950;24.372;2023-02-19T00:57:50;87019.66;;;3.89;60.19
11678;BME280;5895;41.950;24.372;2023-02-19T01:00:17;87031.28;;;4.06;60.19
11678;BME280;5895;41.950;24.372;2023-02-19T01:02:44;87024.00;;;4.10;59.04
11678;BME280;5895;41.950;24.372;2023-02-19T01:05:11;87015.88;;;4.06;59.03
11678;BME280;5895;41.950;24.372;2023-02-19T01:07:38;87020.56;;;4.03;59.46
11678;BME280;5895;41.950;24.372;2023-02-19T01:10:06;87020.31;;;3.97;59.45
11678;BME280;5895;41.950;24.372;2023-02-19T01:12:34;87017.75;;;3.97;59.29
11678;BME280;5895;41.950;24.372;2023-02-19T01:15:02;87013.41;;;3.98;59.59
11678;BME280;5895;41.950;24.372;2023-02-19T01:17:30;87009.03;;;3.92;59.45
11678;BME280;5895;41.950;24.372;2023-02-19T01:19:57;87008.97;;;3.85;60.44
11678;BME280;5895;41.950;24.372;2023-02-19T01:22:24;87009.50;;;3.81;60.16
11678;BME280;5895;41.950;24.372;2023-02-19T01:24:51;87007.69;;;3.75;60.07
11678;BME280;5895;41.950;24.372;2023-02-19T01:27:19;87005.84;;;3.68;59.70
11678;BME280;5895;41.950;24.372;2023-02-19T01:29:47;87005.50;;;3.71;60.33
11678;BME280;5895;41.950;24.372;2023-02-19T01:32:14;86994.31;;;3.79;60.19
11678;BME280;5895;41.950;24.372;2023-02-19T01:34:41;86997.56;;;3.88;60.45
11678;BME280;5895;41.950;24.372;2023-02-19T01:37:08;87004.63;;;3.86;59.94
11678;BME280;5895;41.950;24.372;2023-02-19T01:39:36;87001.81;;;3.81;59.75
11678;BME280;5895;41.950;24.372;2023-02-19T01:42:04;86998.22;;;3.75;60.26
11678;BME280;5895;41.950;24.372;2023-02-19T01:47:59;86991.78;;;3.64;61.87
11678;BME280;5895;41.950;24.372;2023-02-19T01:50:34;86989.00;;;3.59;61.01
11678;BME280;5895;41.950;24.372;2023-02-19T01:53:04;86987.78;;;3.55;60.42
11678;BME280;5895;41.950;24.372;2023-02-19T01:55:33;86990.44;;;3.47;60.80
11678;BME280;5895;41.950;24.372;2023-02-19T01:58:01;86991.38;;;3.39;61.28
11678;BME280;5895;41.950;24.372;2023-02-19T02:00:29;86986.78;;;3.35;61.24
11678;BME280;5895;41.950;24.372;2023-02-19T02:02:58;86980.41;;;3.31;61.43
11678;BME280;5895;41.950;24.372;2023-02-19T02:05:40;86989.09;;;3.30;63.96
11678;BME280;5895;41.950;24.372;2023-02-19T02:08:07;86991.84;;;3.28;61.64
11678;BME280;5895;41.950;24.372;2023-02-19T02:10:52;86996.19;;;3.28;61.50
11678;BME280;5895;41.950;24.372;2023-02-19T02:13:20;86993.97;;;3.25;61.71
11678;BME280;5895;41.950;24.372;2023-02-19T02:15:51;86993.53;;;3.21;62.12
11678;BME280;5895;41.950;24.372;2023-02-19T02:18:35;86991.25;;;3.11;63.05
11678;BME280;5895;41.950;24.372;2023-02-19T02:21:31;86982.72;;;3.04;64.92
11678;BME280;5895;41.950;24.372;2023-02-19T02:24:16;86980.94;;;3.05;62.75
11678;BME280;5895;41.950;24.372;2023-02-19T02:27:01;86980.94;;;3.05;63.94
11678;BME280;5895;41.950;24.372;2023-02-19T02:32:25;86978.25;;;3.13;62.61
11678;BME280;5895;41.950;24.372;2023-02-19T02:34:56;86984.81;;;3.15;62.21
11678;BME280;5895;41.950;24.372;2023-02-19T02:37:27;86983.38;;;3.13;62.35
11678;BME280;5895;41.950;24.372;2023-02-19T02:39:57;86990.41;;;3.04;61.51
11678;BME280;5895;41.950;24.372;2023-02-19T02:42:25;86983.69;;;3.03;61.92
11678;BME280;5895;41.950;24.372;2023-02-19T02:44:56;86987.78;;;2.98;62.13
11678;BME280;5895;41.950;24.372;2023-02-19T02:47:45;86995.00;;;2.94;63.01
11678;BME280;5895;41.950;24.372;2023-02-19T02:50:17;86990.59;;;2.88;62.94
11678;BME280;5895;41.950;24.372;2023-02-19T02:52:48;87002.78;;;2.86;62.69
11678;BME280;5895;41.950;24.372;2023-02-19T02:55:35;86995.66;;;2.81;63.01
11678;BME280;5895;41.950;24.372;2023-02-19T02:58:05;87006.25;;;2.78;62.37
11678;BME280;5895;41.950;24.372;2023-02-19T03:00:34;87002.28;;;2.76;62.57
11678;BME280;5895;41.950;24.372;2023-02-19T03:03:20;86998.28;;;2.73;63.03
11678;BME280;5895;41.950;24.372;2023-02-19T03:05:51;87006.16;;;2.72;63.04
11678;BME280;5895;41.950;24.372;2023-02-19T03:08:24;87007.13;;;2.71;62.17
11678;BME280;5895;41.950;24.372;2023-02-19T03:10:56;87006.69;;;2.67;63.77
11678;BME280;5895;41.950;24.372;2023-02-19T03:13:46;87006.09;;;2.65;62.65
11678;BME280;5895;41.950;24.372;2023-02-19T03:16:33;87015.16;;;2.68;63.27
11678;BME280;5895;41.950;24.372;2023-02-19T03:19:22;87028.16;;;2.66;63.19
11678;BME280;5895;41.950;24.372;2023-02-19T03:21:53;87037.94;;;2.62;63.33
11678;BME280;5895;41.950;24.372;2023-02-19T03:24:28;87040.50;;;2.62;64.35
11678;BME280;5895;41.950;24.372;2023-02-19T03:27:14;87037.53;;;2.59;62.68
11678;BME280;5895;41.950;24.372;2023-02-19T03:29:44;87037.59;;;2.51;62.82
11678;BME280;5895;41.950;24.372;2023-02-19T03:32:16;87033.00;;;2.46;63.11
11678;BME280;5895;41.950;24.372;2023-02-19T03:34:50;87045.19;;;2.44;65.04
11678;BME280;5895;41.950;24.372;2023-02-19T03:37:25;87041.03;;;2.43;65.20
11678;BME280;5895;41.950;24.372;2023-02-19T03:39:54;87046.78;;;2.45;62.98
11678;BME280;5895;41.950;24.372;2023-02-19T03:42:34;87039.72;;;2.47;65.27
11678;BME280;5895;41.950;24.372;2023-02-19T03:48:24;87044.47;;;2.50;66.47
11678;BME280;5895;41.950;24.372;2023-02-19T03:51:03;87040.53;;;2.48;65.40
11678;BME280;5895;41.950;24.372;2023-02-19T03:53:36;87034.75;;;2.46;63.86
11678;BME280;5895;41.950;24.372;2023-02-19T03:56:10;87044.41;;;2.44;64.43
11678;BME280;5895;41.950;24.372;2023-02-19T03:58:45;87041.66;;;2.45;64.26
11678;BME280;5895;41.950;24.372;2023-02-19T04:01:21;87038.13;;;2.46;64.18
11678;BME280;5895;41.950;24.372;2023-02-19T04:03:55;87051.09;;;2.45;64.59
11678;BME280;5895;41.950;24.372;2023-02-19T04:06:26;87045.53;;;2.41;64.98
11678;BME280;5895;41.950;24.372;2023-02-19T04:08:57;87044.31;;;2.37;64.01
11678;BME280;5895;41.950;24.372;2023-02-19T04:11:26;87045.78;;;2.31;63.94
11678;BME280;5895;41.950;24.372;2023-02-19T04:13:57;87053.03;;;2.28;65.52
11678;BME280;5895;41.950;24.372;2023-02-19T04:16:28;87055.47;;;2.21;64.59
11678;BME280;5895;41.950;24.372;2023-02-19T04:18:58;87056.28;;;2.22;65.53
11678;BME280;5895;41.950;24.372;2023-02-19T04:21:31;87050.38;;;2.21;64.30
11678;BME280;5895;41.950;24.372;2023-02-19T04:24:03;87047.63;;;2.23;65.22
11678;BME280;5895;41.950;24.372;2023-02-19T04:26:32;87050.81;;;2.25;64.49
11678;BME280;5895;41.950;24.372;2023-02-19T04:29:01;87048.25;;;2.25;64.53
11678;BME280;5895;41.950;24.372;2023-02-19T04:31:30;87055.94;;;2.25;64.49
11678;BME280;5895;41.950;24.372;2023-02-19T04:34:00;87049.22;;;2.24;64.44
11678;BME280;5895;41.950;24.372;2023-02-19T04:36:30;87049.22;;;2.24;65.17
11678;BME280;5895;41.950;24.372;2023-02-19T04:38:57;87049.56;;;2.21;64.61
11678;BME280;5895;41.950;24.372;2023-02-19T04:41:24;87046.66;;;2.24;64.19
11678;BME280;5895;41.950;24.372;2023-02-19T04:43:51;87045.84;;;2.23;63.61
11678;BME280;5895;41.950;24.372;2023-02-19T04:46:18;87051.16;;;2.22;64.26
11678;BME280;5895;41.950;24.372;2023-02-19T04:48:46;87047.19;;;2.19;64.01
11678;BME280;5895;41.950;24.372;2023-02-19T04:51:13;87047.34;;;2.18;63.99
11678;BME280;5895;41.950;24.372;2023-02-19T04:53:41;87049.13;;;2.17;64.29
11678;BME280;5895;41.950;24.372;2023-02-19T04:56:10;87050.53;;;2.20;64.13
11678;BME280;5895;41.950;24.372;2023-02-19T04:58:38;87060.59;;;2.21;64.16
11678;BME280;5895;41.950;24.372;2023-02-19T05:01:06;87059.63;;;2.22;64.26
11678;BME280;5895;41.950;24.372;2023-02-19T05:03:34;87071.63;;;2.22;64.61
11678;BME280;5895;41.950;24.372;2023-02-19T05:06:02;87080.28;;;2.21;64.15
11678;BME280;5895;41.950;24.372;2023-02-19T05:08:29;87078.69;;;2.20;63.89
11678;BME280;5895;41.950;24.372;2023-02-19T05:10:58;87076.28;;;2.18;65.33
11678;BME280;5895;41.950;24.372;2023-02-19T05:13:26;87083.25;;;2.09;64.64
11678;BME280;5895;41.950;24.372;2023-02-19T05:15:54;87090.66;;;2.04;64.67
11678;BME280;5895;41.950;24.372;2023-02-19T05:18:22;87093.41;;;2.03;64.63
11678;BME280;5895;41.950;24.372;2023-02-19T05:20:49;87099.31;;;2.03;64.50
11678;BME280;5895;41.950;24.372;2023-02-19T05:23:17;87103.16;;;1.99;64.47
11678;BME280;5895;41.950;24.372;2023-02-19T05:25:45;87108.28;;;1.99;65.20
11678;BME280;5895;41.950;24.372;2023-02-19T05:28:13;87106.34;;;2.01;65.06
11678;BME280;5895;41.950;24.372;2023-02-19T05:30:45;87107.31;;;2.00;64.30
11678;BME280;5895;41.950;24.372;2023-02-19T05:33:12;87113.06;;;2.02;64.87
11678;BME280;5895;41.950;24.372;2023-02-19T05:35:42;87110.50;;;2.02;65.17
11678;BME280;5895;41.950;24.372;2023-02-19T05:38:10;87111.31;;;2.03;64.41
11678;BME280;5895;41.950;24.372;2023-02-19T05:40:37;87121.19;;;2.06;65.43
11678;BME280;5895;41.950;24.372;2023-02-19T05:43:06;87121.47;;;2.11;64.97
11678;BME280;5895;41.950;24.372;2023-02-19T05:45:35;87118.22;;;2.17;65.24
11678;BME280;5895;41.950;24.372;2023-02-19T05:48:03;87122.81;;;2.22;64.18
11678;BME280;5895;41.950;24.372;2023-02-19T05:50:32;87129.03;;;2.27;64.42
11678;BME280;5895;41.950;24.372;2023-02-19T05:52:59;87140.66;;;2.30;64.20
11678;BME280;5895;41.950;24.372;2023-02-19T05:55:27;87141.50;;;2.30;64.43
11678;BME280;5895;41.950;24.372;2023-02-19T05:57:54;87145.00;;;2.29;64.10
11678;BME280;5895;41.950;24.372;2023-02-19T06:00:22;87146.16;;;2.27;64.37
11678;BME280;5895;41.950;24.372;2023-02-19T06:02:53;87147.13;;;2.26;63.96
11678;BME280;5895;41.950;24.372;2023-02-19T06:05:20;87146.16;;;2.27;64.01
11678;BME280;5895;41.950;24.372;2023-02-19T06:07:47;87139.44;;;2.26;64.82
11678;BME280;5895;41.950;24.372;2023-02-19T06:10:16;87145.78;;;2.30;64.54
11678;BME280;5895;41.950;24.372;2023-02-19T06:12:43;87150.25;;;2.36;63.92
11678;BME280;5895;41.950;24.372;2023-02-19T06:15:10;87157.06;;;2.44;63.95
11678;BME280;5895;41.950;24.372;2023-02-19T06:17:38;87162.28;;;2.50;63.53
11678;BME280;5895;41.950;24.372;2023-02-19T06:20:08;87159.66;;;2.58;63.45
11678;BME280;5895;41.950;24.372;2023-02-19T06:22:35;87161.25;;;2.59;63.63
11678;BME280;5895;41.950;24.372;2023-02-19T06:25:02;87163.63;;;2.61;63.26
11678;BME280;5895;41.950;24.372;2023-02-19T06:27:32;87162.47;;;2.63;62.86
11678;BME280;5895;41.950;24.372;2023-02-19T06:29:59;87159.88;;;2.72;63.42
11678;BME280;5895;41.950;24.372;2023-02-19T06:32:27;87173.56;;;2.79;62.64
11678;BME280;5895;41.950;24.372;2023-02-19T06:34:54;87171.09;;;2.85;62.66
11678;BME280;5895;41.950;24.372;2023-02-19T06:37:22;87178.25;;;2.90;62.83
11678;BME280;5895;41.950;24.372;2023-02-19T06:39:49;87172.44;;;2.96;62.26
11678;BME280;5895;41.950;24.372;2023-02-19T06:42:16;87163.91;;;3.04;62.41
11678;BME280;5895;41.950;24.372;2023-02-19T06:44:45;87168.31;;;3.10;62.45
11678;BME280;5895;41.950;24.372;2023-02-19T06:47:12;87165.66;;;3.18;62.52
11678;BME280;5895;41.950;24.372;2023-02-19T06:49:39;87180.78;;;3.28;61.46
11678;BME280;5895;41.950;24.372;2023-02-19T06:52:06;87172.66;;;3.39;61.63
11678;BME280;5895;41.950;24.372;2023-02-19T06:54:35;87174.69;;;3.43;61.92
11678;BME280;5895;41.950;24.372;2023-02-19T06:57:02;87168.06;;;3.49;61.23
11678;BME280;5895;41.950;24.372;2023-02-19T06:59:29;87173.34;;;3.62;60.73
11678;BME280;5895;41.950;24.372;2023-02-19T07:01:56;87172.53;;;3.77;60.26
11678;BME280;5895;41.950;24.372;2023-02-19T07:04:23;87157.91;;;3.92;60.19
11678;BME280;5895;41.950;24.372;2023-02-19T07:06:51;87156.34;;;4.12;60.43
11678;BME280;5895;41.950;24.372;2023-02-19T07:09:18;87152.03;;;4.34;59.30
11678;BME280;5895;41.950;24.372;2023-02-19T07:11:46;87158.56;;;4.58;58.59
11678;BME280;5895;41.950;24.372;2023-02-19T07:14:14;87149.44;;;4.77;58.39
11678;BME280;5895;41.950;24.372;2023-02-19T07:16:42;87147.16;;;4.89;57.80
11678;BME280;5895;41.950;24.372;2023-02-19T07:19:12;87154.97;;;5.02;58.11
11678;BME280;5895;41.950;24.372;2023-02-19T07:21:39;87140.81;;;5.13;57.70
11678;BME280;5895;41.950;24.372;2023-02-19T07:24:07;87142.47;;;5.27;57.64
11678;BME280;5895;41.950;24.372;2023-02-19T07:26:35;87151.28;;;5.39;57.96
11678;BME280;5895;41.950;24.372;2023-02-19T07:29:03;87149.34;;;5.54;58.08
11678;BME280;5895;41.950;24.372;2023-02-19T07:31:32;87145.47;;;5.72;57.70
11678;BME280;5895;41.950;24.372;2023-02-19T07:33:59;87144.38;;;5.88;56.75
11678;BME280;5895;41.950;24.372;2023-02-19T07:36:26;87145.66;;;6.05;56.95
11678;BME280;5895;41.950;24.372;2023-02-19T07:38:54;87137.38;;;6.23;56.19
11678;BME280;5895;41.950;24.372;2023-02-19T07:41:21;87138.66;;;6.47;56.04
11678;BME280;5895;41.950;24.372;2023-02-19T07:43:49;87138.09;;;6.71;55.54
11678;BME280;5895;41.950;24.372;2023-02-19T07:46:19;87139.50;;;6.94;55.02
11678;BME280;5895;41.950;24.372;2023-02-19T07:48:46;87134.53;;;7.12;54.04
11678;BME280;5895;41.950;24.372;2023-02-19T07:51:15;87134.75;;;7.30;54.01
11678;BME280;5895;41.950;24.372;2023-02-19T07:53:47;87139.84;;;7.50;53.43
11678;BME280;5895;41.950;24.372;2023-02-19T07:56:16;87132.28;;;7.75;52.33
11678;BME280;5895;41.950;24.372;2023-02-19T07:58:43;87127.81;;;7.95;52.23
11678;BME280;5895;41.950;24.372;2023-02-19T08:01:14;87121.81;;;8.15;53.49
11678;BME280;5895;41.950;24.372;2023-02-19T08:03:44;87124.50;;;8.33;52.47
11678;BME280;5895;41.950;24.372;2023-02-19T08:06:11;87125.63;;;8.51;52.32
11678;BME280;5895;41.950;24.372;2023-02-19T08:08:39;87119.97;;;8.67;51.37
11678;BME280;5895;41.950;24.372;2023-02-19T08:11:06;87117.13;;;8.82;50.78
11678;BME280;5895;41.950;24.372;2023-02-19T08:13:51;87107.47;;;8.95;51.00
11678;BME280;5895;41.950;24.372;2023-02-19T08:16:19;87118.25;;;9.17;51.01
11678;BME280;5895;41.950;24.372;2023-02-19T08:18:49;87114.28;;;9.40;50.24
11678;BME280;5895;41.950;24.372;2023-02-19T08:21:17;87117.28;;;9.62;49.90
11678;BME280;5895;41.950;24.372;2023-02-19T08:23:45;87118.59;;;9.89;49.42
11678;BME280;5895;41.950;24.372;2023-02-19T08:26:12;87107.59;;;10.12;49.36
11678;BME280;5895;41.950;24.372;2023-02-19T08:28:39;87110.34;;;10.36;49.22
11678;BME280;5895;41.950;24.372;2023-02-19T08:31:08;87109.00;;;10.63;49.14
11678;BME280;5895;41.950;24.372;2023-02-19T08:33:37;87113.13;;;10.82;48.14
11678;BME280;5895;41.950;24.372;2023-02-19T08:36:07;87106.00;;;11.08;48.60
11678;BME280;5895;41.950;24.372;2023-02-19T08:38:35;87110.09;;;11.39;48.60
11678;BME280;5895;41.950;24.372;2023-02-19T08:41:04;87107.19;;;11.59;48.08
11678;BME280;5895;41.950;24.372;2023-02-19T08:43:32;87109.03;;;11.82;47.94
11678;BME280;5895;41.950;24.372;2023-02-19T08:45:59;87100.91;;;12.02;48.09
11678;BME280;5895;41.950;24.372;2023-02-19T08:48:27;87099.41;;;12.17;47.41
11678;BME280;5895;41.950;24.372;2023-02-19T08:50:55;87091.91;;;12.33;47.76
11678;BME280;5895;41.950;24.372;2023-02-19T08:53:24;87097.97;;;12.50;46.70
11678;BME280;5895;41.950;24.372;2023-02-19T08:55:52;87095.44;;;12.67;47.43
11678;BME280;5895;41.950;24.372;2023-02-19T08:58:19;87091.97;;;12.90;47.53
11678;BME280;5895;41.950;24.372;2023-02-19T09:00:46;87088.16;;;13.09;47.00
11678;BME280;5895;41.950;24.372;2023-02-19T09:03:13;87092.88;;;13.41;46.55
11678;BME280;5895;41.950;24.372;2023-02-19T09:05:41;87095.91;;;13.66;46.86
11678;BME280;5895;41.950;24.372;2023-02-19T09:08:09;87089.00;;;13.94;46.13
11678;BME280;5895;41.950;24.372;2023-02-19T09:10:38;87080.66;;;14.14;45.83
11678;BME280;5895;41.950;24.372;2023-02-19T09:13:05;87084.94;;;14.42;45.84
11678;BME280;5895;41.950;24.372;2023-02-19T09:15:33;87080.56;;;14.64;45.85
11678;BME280;5895;41.950;24.372;2023-02-19T09:18:00;87085.84;;;14.91;45.72
11678;BME280;5895;41.950;24.372;2023-02-19T09:20:27;87085.03;;;15.13;45.58
11678;BME280;5895;41.950;24.372;2023-02-19T09:22:58;87078.47;;;15.10;43.28
11678;BME280;5895;41.950;24.372;2023-02-19T09:25:25;87085.38;;;14.94;45.76
11678;BME280;5895;41.950;24.372;2023-02-19T09:27:56;87083.59;;;15.00;43.73
11678;BME280;5895;41.950;24.372;2023-02-19T09:30:24;87076.09;;;15.08;45.01
11678;BME280;5895;41.950;24.372;2023-02-19T09:32:51;87076.59;;;15.05;44.87
11678;BME280;5895;41.950;24.372;2023-02-19T09:35:18;87075.34;;;15.13;45.24
11678;BME280;5895;41.950;24.372;2023-02-19T09:37:45;87075.94;;;15.20;45.29
11678;BME280;5895;41.950;24.372;2023-02-19T09:40:13;87070.97;;;15.19;45.06
11678;BME280;5895;41.950;24.372;2023-02-19T09:42:47;87075.72;;;15.22;44.41
11678;BME280;5895;41.950;24.372;2023-02-19T09:45:21;87071.38;;;15.32;42.40
11678;BME280;5895;41.950;24.372;2023-02-19T09:47:52;87063.13;;;15.46;42.82
11678;BME280;5895;41.950;24.372;2023-02-19T09:50:24;87063.22;;;15.56;42.99
11678;BME280;5895;41.950;24.372;2023-02-19T09:52:55;87063.88;;;15.68;43.65
11678;BME280;5895;41.950;24.372;2023-02-19T09:55:29;87056.22;;;15.99;42.56
11678;BME280;5895;41.950;24.372;2023-02-19T09:58:01;87056.44;;;16.29;43.59
11678;BME280;5895;41.950;24.372;2023-02-19T10:00:32;87050.28;;;16.51;41.86
11678;BME280;5895;41.950;24.372;2023-02-19T10:03:03;87052.16;;;16.65;40.97
11678;BME280;5895;41.950;24.372;2023-02-19T10:05:32;87053.00;;;16.71;43.29
11678;BME280;5895;41.950;24.372;2023-02-19T10:08:00;87048.06;;;16.80;43.09
11678;BME280;5895;41.950;24.372;2023-02-19T10:10:32;87050.94;;;16.83;42.88
11678;BME280;5895;41.950;24.372;2023-02-19T10:13:12;87037.06;;;16.88;37.53
11678;BME280;5895;41.950;24.372;2023-02-19T10:15:45;87047.56;;;16.93;40.62
11678;BME280;5895;41.950;24.372;2023-02-19T10:18:16;87044.50;;;17.16;41.52
11678;BME280;5895;41.950;24.372;2023-02-19T10:20:44;87042.72;;;17.48;42.62
11678;BME280;5895;41.950;24.372;2023-02-19T10:23:13;87030.94;;;17.70;42.27
11678;BME280;5895;41.950;24.372;2023-02-19T10:25:45;87027.56;;;17.75;40.15
11678;BME280;5895;41.950;24.372;2023-02-19T10:28:14;87023.34;;;18.00;41.42
11678;BME280;5895;41.950;24.372;2023-02-19T10:30:47;87020.16;;;18.18;39.87
11678;BME280;5895;41.950;24.372;2023-02-19T10:33:18;87025.41;;;18.28;42.30
11678;BME280;5895;41.950;24.372;2023-02-19T10:35:54;87016.47;;;18.29;34.02
11678;BME280;5895;41.950;24.372;2023-02-19T10:38:25;87009.91;;;18.37;40.49
11678;BME280;5895;41.950;24.372;2023-02-19T10:40:59;87001.97;;;18.57;38.61
11678;BME280;5895;41.950;24.372;2023-02-19T10:43:30;87009.03;;;18.62;40.59
11678;BME280;5895;41.950;24.372;2023-02-19T10:46:05;86994.31;;;18.66;34.36
11678;BME280;5895;41.950;24.372;2023-02-19T10:48:35;86993.84;;;18.54;41.13
11678;BME280;5895;41.950;24.372;2023-02-19T10:51:06;86992.53;;;18.51;40.14
11678;BME280;5895;41.950;24.372;2023-02-19T10:53:41;86983.84;;;18.56;36.75
11678;BME280;5895;41.950;24.372;2023-02-19T10:56:12;86984.31;;;18.73;40.28
11678;BME280;5895;41.950;24.372;2023-02-19T10:58:39;86982.59;;;19.08;41.54
11678;BME280;5895;41.950;24.372;2023-02-19T11:01:24;86975.72;;;19.56;34.10
11678;BME280;5895;41.950;24.372;2023-02-19T11:04:13;86965.22;;;19.90;34.79
11678;BME280;5895;41.950;24.372;2023-02-19T11:06:40;86955.06;;;20.07;40.79
11678;BME280;5895;41.950;24.372;2023-02-19T11:09:23;86951.06;;;20.39;34.42
11678;BME280;5895;41.950;24.372;2023-02-19T11:11:53;86953.34;;;20.51;40.48
11678;BME280;5895;41.950;24.372;2023-02-19T11:14:22;86948.84;;;20.51;39.66
11678;BME280;5895;41.950;24.372;2023-02-19T11:16:53;86945.00;;;20.39;37.30
11678;BME280;5895;41.950;24.372;2023-02-19T11:19:27;86944.94;;;20.49;39.69
11678;BME280;5895;41.950;24.372;2023-02-19T11:21:55;86946.53;;;20.69;40.62
11678;BME280;5895;41.950;24.372;2023-02-19T11:24:29;86932.69;;;20.82;36.49
11678;BME280;5895;41.950;24.372;2023-02-19T11:26:59;86930.66;;;20.74;40.37
11678;BME280;5895;41.950;24.372;2023-02-19T11:29:28;86932.03;;;20.47;41.12
11678;BME280;5895;41.950;24.372;2023-02-19T11:32:20;86931.09;;;20.33;34.37
11678;BME280;5895;41.950;24.372;2023-02-19T11:34:49;86929.53;;;20.03;40.43
11678;BME280;5895;41.950;24.372;2023-02-19T11:37:18;86935.25;;;20.15;40.77
11678;BME280;5895;41.950;24.372;2023-02-19T11:39:48;86934.69;;;20.42;40.61
11678;BME280;5895;41.950;24.372;2023-02-19T11:42:26;86923.00;;;20.53;33.14
11678;BME280;5895;41.950;24.372;2023-02-19T11:45:25;86923.91;;;20.86;33.08
11678;BME280;5895;41.950;24.372;2023-02-19T11:48:43;86932.41;;;21.02;34.26
11678;BME280;5895;41.950;24.372;2023-02-19T11:51:30;86924.31;;;21.18;32.74
11678;BME280;5895;41.950;24.372;2023-02-19T11:54:08;86919.91;;;21.32;35.33
11678;BME280;5895;41.950;24.372;2023-02-19T11:56:40;86910.63;;;21.53;39.86
11678;BME280;5895;41.950;24.372;2023-02-19T11:59:17;86917.16;;;21.75;34.48
11678;BME280;5895;41.950;24.372;2023-02-19T12:01:57;86916.22;;;21.84;34.59
11678;BME280;5895;41.950;24.372;2023-02-19T12:05:04;86904.13;;;21.97;31.05
11678;BME280;5895;41.950;24.372;2023-02-19T12:10:35;86905.28;;;21.91;35.01
11678;BME280;5895;41.950;24.372;2023-02-19T12:13:12;86895.72;;;21.95;36.54
11678;BME280;5895;41.950;24.372;2023-02-19T12:15:57;86887.34;;;22.21;34.75
11678;BME280;5895;41.950;24.372;2023-02-19T12:18:46;86891.19;;;22.42;34.84
11678;BME280;5895;41.950;24.372;2023-02-19T12:21:26;86894.22;;;22.49;33.50
11678;BME280;5895;41.950;24.372;2023-02-19T12:24:20;86893.84;;;22.42;31.24
11678;BME280;5895;41.950;24.372;2023-02-19T12:27:04;86896.00;;;22.54;32.65
11678;BME280;5895;41.950;24.372;2023-02-19T12:29:49;86886.31;;;22.49;33.04
11678;BME280;5895;41.950;24.372;2023-02-19T12:32:33;86882.47;;;22.55;30.56
11678;BME280;5895;41.950;24.372;2023-02-19T12:35:42;86882.19;;;22.70;32.86
11678;BME280;5895;41.950;24.372;2023-02-19T12:38:20;86879.34;;;22.81;34.11
11678;BME280;5895;41.950;24.372;2023-02-19T12:40:59;86885.03;;;22.88;35.28
11678;BME280;5895;41.950;24.372;2023-02-19T12:43:31;86879.56;;;22.98;39.89
11678;BME280;5895;41.950;24.372;2023-02-19T12:46:03;86873.53;;;23.06;38.88
11678;BME280;5895;41.950;24.372;2023-02-19T12:48:34;86869.31;;;23.19;37.10
11678;BME280;5895;41.950;24.372;2023-02-19T12:51:06;86868.16;;;23.11;38.31
11678;BME280;5895;41.950;24.372;2023-02-19T12:53:41;86865.38;;;23.16;34.41
11678;BME280;5895;41.950;24.372;2023-02-19T12:56:15;86859.56;;;22.92;35.23
11678;BME280;5895;41.950;24.372;2023-02-19T12:58:47;86855.63;;;22.76;34.96
11678;BME280;5895;41.950;24.372;2023-02-19T13:01:21;86850.75;;;22.55;37.28
11678;BME280;5895;41.950;24.372;2023-02-19T13:04:04;86849.00;;;22.37;35.83
11678;BME280;5895;41.950;24.372;2023-02-19T13:06:36;86845.56;;;22.23;38.71
11678;BME280;5895;41.950;24.372;2023-02-19T13:09:12;86839.59;;;22.17;34.21
11678;BME280;5895;41.950;24.372;2023-02-19T13:11:44;86838.78;;;22.16;37.90
11678;BME280;5895;41.950;24.372;2023-02-19T13:14:18;86834.59;;;22.15;36.09
11678;BME280;5895;41.950;24.372;2023-02-19T13:16:51;86828.88;;;22.08;36.72
11678;BME280;5895;41.950;24.372;2023-02-19T13:19:20;86831.59;;;21.89;39.83
11678;BME280;5895;41.950;24.372;2023-02-19T13:21:54;86832.47;;;21.85;34.57
11678;BME280;5895;41.950;24.372;2023-02-19T13:24:41;86826.81;;;21.78;36.20
11678;BME280;5895;41.950;24.372;2023-02-19T13:27:41;86819.16;;;21.76;32.12
11678;BME280;5895;41.950;24.372;2023-02-19T13:30:24;86816.59;;;21.71;34.07
11678;BME280;5895;41.950;24.372;2023-02-19T13:33:02;86811.13;;;21.68;34.49
11678;BME280;5895;41.950;24.372;2023-02-19T13:35:59;86810.44;;;21.62;32.02
11678;BME280;5895;41.950;24.372;2023-02-19T13:38:31;86801.34;;;21.68;39.66
11678;BME280;5895;41.950;24.372;2023-02-19T13:41:00;86804.69;;;21.87;38.23
11678;BME280;5895;41.950;24.372;2023-02-19T13:43:30;86802.16;;;21.96;37.13